createdAt,value
2023-06-24T00:01:17.729Z,43.93
2023-06-24T00:03:48.097Z,43.67
2023-06-24T00:06:19.706Z,43.71
2023-06-24T00:08:47.864Z,43.79
2023-06-24T00:11:15.436Z,43.55
2023-06-24T00:13:43.458Z,43.59
2023-06-24T00:16:13.910Z,43.58
2023-06-24T00:18:43.903Z,43.88
2023-06-24T00:21:11.268Z,43.72
2023-06-24T00:23:38.540Z,43.52
2023-06-24T00:26:05.816Z,43.52
2023-06-24T00:28:33.043Z,43.53
2023-06-24T00:31:00.442Z,43.45
2023-06-24T00:33:27.845Z,43.54
2023-06-24T00:35:55.827Z,43.58
2023-06-24T00:38:23.205Z,43.50
2023-06-24T00:40:51.539Z,43.40
2023-06-24T00:43:18.912Z,43.46
2023-06-24T00:45:50.052Z,43.40
2023-06-24T00:48:17.522Z,43.32
2023-06-24T00:50:46.616Z,43.41
2023-06-24T00:53:14.148Z,43.39
2023-06-24T00:55:41.671Z,43.35
2023-06-24T00:58:11.349Z,43.33
2023-06-24T01:00:39.169Z,43.33
2023-06-24T01:03:06.967Z,43.32
2023-06-24T01:05:37.248Z,43.41
2023-06-24T01:08:05.047Z,43.39
2023-06-24T01:10:34.530Z,43.23
2023-06-24T01:13:04.319Z,43.28
2023-06-24T01:15:34.729Z,43.29
2023-06-24T01:18:20.803Z,43.36
2023-06-24T01:21:06.703Z,43.38
2023-06-24T01:23:55.247Z,43.29
2023-06-24T01:26:44.538Z,43.40
2023-06-24T01:29:55.739Z,43.32
2023-06-24T01:32:46.053Z,43.31
2023-06-24T01:35:21.930Z,43.28
2023-06-24T01:37:56.035Z,43.29
2023-06-24T01:40:26.545Z,43.28
2023-06-24T01:42:59.488Z,43.37
2023-06-24T01:45:29.665Z,43.36
2023-06-24T01:48:05.591Z,43.26
2023-06-24T01:50:38.561Z,43.28
2023-06-24T01:53:08.417Z,43.23
2023-06-24T01:55:37.825Z,43.39
2023-06-24T01:58:10.320Z,43.29
2023-06-24T02:00:40.873Z,43.27
2023-06-24T02:03:10.042Z,43.32
2023-06-24T02:05:40.893Z,43.27
2023-06-24T02:08:14.995Z,43.21
2023-06-24T02:10:43.612Z,43.34
2023-06-24T02:13:12.656Z,43.00
2023-06-24T02:15:41.395Z,43.22
2023-06-24T02:18:14.052Z,43.16
2023-06-24T02:20:45.156Z,43.21
2023-06-24T02:23:13.601Z,43.12
2023-06-24T02:25:43.560Z,43.29
2023-06-24T02:28:13.677Z,43.22
2023-06-24T02:30:42.501Z,43.23
2023-06-24T02:33:10.297Z,43.23
2023-06-24T02:35:37.815Z,43.04
2023-06-24T02:38:05.157Z,43.16
2023-06-24T02:40:33.708Z,43.13
2023-06-24T02:43:01.124Z,43.15
2023-06-24T02:45:29.383Z,43.21
2023-06-24T02:47:57.933Z,43.09
2023-06-24T02:50:28.173Z,43.04
2023-06-24T02:52:56.536Z,43.16
2023-06-24T02:55:35.341Z,43.12
2023-06-24T02:58:09.064Z,43.16
2023-06-24T03:00:38.028Z,43.15
2023-06-24T03:03:13.749Z,43.15
2023-06-24T03:05:54.634Z,43.10
2023-06-24T03:08:22.882Z,43.13
2023-06-24T03:10:56.109Z,43.02
2023-06-24T03:13:25.279Z,43.10
2023-06-24T03:15:59.092Z,43.10
2023-06-24T03:18:30.701Z,42.95
2023-06-24T03:21:00.885Z,42.84
2023-06-24T03:23:31.504Z,43.08
2023-06-24T03:26:00.067Z,43.05
2023-06-24T03:28:32.748Z,42.93
2023-06-24T03:31:09.625Z,43.11
2023-06-24T03:33:38.177Z,43.00
2023-06-24T03:36:09.145Z,43.21
2023-06-24T03:38:39.456Z,43.37
2023-06-24T03:41:07.699Z,43.29
2023-06-24T03:43:37.154Z,43.21
2023-06-24T03:46:04.497Z,43.24
2023-06-24T03:48:34.261Z,43.38
2023-06-24T03:51:02.248Z,43.71
2023-06-24T03:53:36.591Z,43.54
2023-06-24T03:56:06.233Z,44.29
2023-06-24T03:58:33.485Z,43.90
2023-06-24T04:01:03.430Z,43.88
2023-06-24T04:03:33.685Z,43.90
2023-06-24T04:06:04.052Z,43.82
2023-06-24T04:08:33.741Z,43.88
2023-06-24T04:11:04.433Z,43.92
2023-06-24T04:13:33.229Z,43.95
2023-06-24T04:16:03.014Z,43.95
2023-06-24T04:18:32.750Z,43.82
2023-06-24T04:21:00.052Z,43.83
2023-06-24T04:23:32.050Z,43.73
2023-06-24T04:26:01.992Z,43.53
2023-06-24T04:28:29.601Z,43.40
2023-06-24T04:30:59.504Z,43.63
2023-06-24T04:33:29.688Z,43.53
2023-06-24T04:36:00.273Z,43.47
2023-06-24T04:38:27.708Z,43.43
2023-06-24T04:40:55.462Z,43.43
2023-06-24T04:43:28.297Z,43.47
2023-06-24T04:45:58.233Z,43.29
2023-06-24T04:48:25.754Z,43.19
2023-06-24T04:50:54.676Z,42.99
2023-06-24T04:53:22.601Z,43.01
2023-06-24T04:55:50.048Z,43.04
2023-06-24T04:58:17.259Z,43.19
2023-06-24T05:00:44.669Z,43.16
2023-06-24T05:03:11.968Z,43.14
2023-06-24T05:05:40.403Z,43.03
2023-06-24T05:08:07.843Z,43.02
2023-06-24T05:10:37.506Z,42.80
2023-06-24T05:13:05.025Z,42.83
2023-06-24T05:15:32.496Z,42.75
2023-06-24T05:17:59.970Z,42.45
2023-06-24T05:20:27.521Z,42.44
2023-06-24T05:22:55.453Z,42.34
2023-06-24T05:25:23.532Z,42.22
2023-06-24T05:27:53.168Z,42.16
2023-06-24T05:30:23.147Z,42.03
2023-06-24T05:32:51.055Z,41.87
2023-06-24T05:35:18.522Z,41.83
2023-06-24T05:37:48.132Z,41.91
2023-06-24T05:40:18.055Z,41.88
2023-06-24T05:42:48.400Z,41.73
2023-06-24T05:45:15.868Z,41.68
2023-06-24T05:47:43.137Z,41.60
2023-06-24T05:50:10.901Z,41.73
2023-06-24T05:52:43.105Z,41.57
2023-06-24T05:55:14.878Z,41.55
2023-06-24T05:57:42.439Z,41.47
2023-06-24T06:00:10.262Z,41.41
2023-06-24T06:02:45.800Z,41.39
2023-06-24T06:05:15.670Z,41.48
2023-06-24T06:07:44.764Z,41.40
2023-06-24T06:10:12.302Z,41.47
2023-06-24T06:12:41.802Z,41.37
2023-06-24T06:15:09.922Z,41.17
2023-06-24T06:17:37.136Z,41.25
2023-06-24T06:20:05.589Z,41.30
2023-06-24T06:22:38.775Z,41.26
2023-06-24T06:25:09.380Z,41.22
2023-06-24T06:27:37.049Z,41.02
2023-06-24T06:30:05.436Z,41.01
2023-06-24T06:32:37.850Z,40.89
2023-06-24T06:35:06.068Z,40.86
2023-06-24T06:37:33.383Z,40.77
2023-06-24T06:40:01.135Z,40.51
2023-06-24T06:42:32.415Z,40.30
2023-06-24T06:44:59.594Z,40.30
2023-06-24T06:47:29.561Z,40.36
2023-06-24T06:49:56.997Z,40.34
2023-06-24T06:52:24.425Z,40.41
2023-06-24T06:54:51.797Z,40.27
2023-06-24T06:57:19.547Z,40.33
2023-06-24T06:59:51.974Z,40.18
2023-06-24T07:02:19.848Z,40.21
2023-06-24T07:04:48.947Z,40.11
2023-06-24T07:07:16.218Z,40.29
2023-06-24T07:09:43.570Z,40.11
2023-06-24T07:12:14.436Z,40.32
2023-06-24T07:14:41.564Z,40.43
2023-06-24T07:17:09.230Z,40.33
2023-06-24T07:19:36.507Z,40.08
2023-06-24T07:22:04.075Z,40.06
2023-06-24T07:24:31.311Z,40.06
2023-06-24T07:27:00.962Z,39.96
2023-06-24T07:29:36.004Z,40.11
2023-06-24T07:32:03.538Z,39.98
2023-06-24T07:34:44.138Z,39.75
2023-06-24T07:37:23.109Z,39.71
2023-06-24T07:39:51.469Z,39.78
2023-06-24T07:42:20.203Z,39.86
2023-06-24T07:44:48.765Z,39.83
2023-06-24T07:47:19.911Z,39.75
2023-06-24T07:49:47.473Z,39.76
2023-06-24T07:52:15.353Z,39.94
2023-06-24T07:54:43.430Z,39.67
2023-06-24T07:57:10.601Z,39.86
2023-06-24T07:59:38.104Z,39.78
2023-06-24T08:02:06.259Z,39.75
2023-06-24T08:04:33.531Z,39.90
2023-06-24T08:07:04.049Z,39.75
2023-06-24T08:09:31.902Z,39.52
2023-06-24T08:11:59.213Z,39.60
2023-06-24T08:14:33.786Z,39.47
2023-06-24T08:17:01.152Z,40.33
2023-06-24T08:19:28.609Z,40.37
2023-06-24T08:21:55.914Z,40.61
2023-06-24T08:24:27.938Z,40.70
2023-06-24T08:26:55.364Z,41.01
2023-06-24T08:29:22.538Z,40.95
2023-06-24T08:31:52.544Z,41.75
2023-06-24T08:34:19.716Z,41.87
2023-06-24T08:36:47.191Z,41.83
2023-06-24T08:39:14.906Z,42.02
2023-06-24T08:41:44.850Z,42.29
2023-06-24T08:44:12.505Z,42.25
2023-06-24T08:46:40.577Z,42.19
2023-06-24T08:49:27.891Z,42.17
2023-06-24T08:52:00.126Z,42.29
2023-06-24T08:54:29.206Z,42.07
2023-06-24T08:56:58.967Z,42.21
2023-06-24T08:59:26.270Z,42.19
2023-06-24T09:01:58.329Z,42.34
2023-06-24T09:04:25.717Z,42.31
2023-06-24T09:06:52.949Z,42.18
2023-06-24T09:09:24.033Z,42.45
2023-06-24T09:12:03.084Z,42.35
2023-06-24T09:14:31.140Z,42.49
2023-06-24T09:17:02.636Z,42.42
2023-06-24T09:19:30.479Z,42.47
2023-06-24T09:22:06.201Z,42.20
2023-06-24T09:24:37.515Z,42.47
2023-06-24T09:27:09.512Z,42.22
2023-06-24T09:29:37.455Z,42.23
2023-06-24T09:32:08.020Z,42.34
2023-06-24T09:34:36.819Z,42.30
2023-06-24T09:37:04.312Z,42.31
2023-06-24T09:39:38.608Z,42.29
2023-06-24T09:42:07.793Z,42.33
2023-06-24T09:44:35.258Z,42.16
2023-06-24T09:47:05.274Z,42.15
2023-06-24T09:49:32.483Z,42.31
2023-06-24T09:52:02.434Z,42.09
2023-06-24T09:54:33.868Z,42.29
2023-06-24T09:57:07.450Z,42.24
2023-06-24T09:59:35.404Z,42.21
2023-06-24T10:02:04.443Z,42.17
2023-06-24T10:04:33.022Z,42.00
2023-06-24T10:07:01.083Z,42.24
2023-06-24T10:09:29.872Z,42.31
2023-06-24T10:12:01.436Z,42.15
2023-06-24T10:14:28.781Z,42.44
2023-06-24T10:17:04.320Z,42.27
2023-06-24T10:19:42.930Z,42.39
2023-06-24T10:22:12.965Z,42.36
2023-06-24T10:24:43.570Z,42.79
2023-06-24T10:27:24.256Z,42.21
2023-06-24T10:29:54.328Z,42.38
2023-06-24T10:32:24.015Z,42.27
2023-06-24T10:34:58.410Z,42.41
2023-06-24T10:37:31.284Z,42.09
2023-06-24T10:40:02.374Z,42.25
2023-06-24T10:42:45.040Z,42.16
2023-06-24T10:45:20.021Z,42.00
2023-06-24T10:47:53.983Z,41.96
2023-06-24T10:50:23.446Z,41.77
2023-06-24T10:52:56.674Z,41.85
2023-06-24T10:55:27.413Z,42.34
2023-06-24T10:57:54.658Z,41.91
2023-06-24T11:00:25.141Z,41.96
2023-06-24T11:02:52.918Z,41.99
2023-06-24T11:05:20.176Z,41.97
2023-06-24T11:07:48.592Z,42.39
2023-06-24T11:10:18.393Z,42.09
2023-06-24T11:12:47.527Z,42.16
2023-06-24T11:15:15.184Z,42.17
2023-06-24T11:17:43.271Z,42.20
2023-06-24T11:20:15.446Z,42.14
2023-06-24T11:22:44.610Z,42.24
2023-06-24T11:25:24.845Z,42.34
2023-06-24T11:27:54.756Z,42.55
2023-06-24T11:30:24.979Z,42.53
2023-06-24T11:32:54.906Z,42.74
2023-06-24T11:35:22.283Z,42.65
2023-06-24T11:37:53.319Z,42.67
2023-06-24T11:40:21.341Z,42.84
2023-06-24T11:42:51.854Z,43.00
2023-06-24T11:45:23.162Z,42.92
2023-06-24T11:47:53.904Z,42.91
2023-06-24T11:50:27.892Z,42.91
2023-06-24T11:52:55.166Z,42.96
2023-06-24T11:55:25.147Z,43.05
2023-06-24T11:57:55.265Z,43.14
2023-06-24T12:00:42.413Z,43.20
2023-06-24T12:03:13.450Z,43.20
2023-06-24T12:05:46.833Z,43.67
2023-06-24T12:08:18.131Z,43.29
2023-06-24T12:10:46.533Z,43.35
2023-06-24T12:13:15.940Z,43.28
2023-06-24T12:15:43.460Z,43.17
2023-06-24T12:18:11.055Z,43.27
2023-06-24T12:20:39.398Z,43.25
2023-06-24T12:23:09.193Z,43.50
2023-06-24T12:25:36.806Z,43.47
2023-06-24T12:28:04.571Z,43.65
2023-06-24T12:30:31.755Z,43.69
2023-06-24T12:32:59.145Z,43.64
2023-06-24T12:35:27.040Z,43.60
2023-06-24T12:37:54.340Z,43.63
2023-06-24T12:40:21.717Z,43.68
2023-06-24T12:42:49.452Z,43.74
2023-06-24T12:45:16.863Z,43.95
2023-06-24T12:47:44.429Z,43.89
2023-06-24T12:50:12.035Z,43.88
2023-06-24T12:52:40.230Z,43.94
2023-06-24T12:55:08.830Z,43.96
2023-06-24T12:57:39.603Z,44.09
2023-06-24T13:00:21.874Z,44.02
2023-06-24T13:02:54.783Z,44.19
2023-06-24T13:05:23.076Z,44.21
2023-06-24T13:07:50.277Z,44.16
2023-06-24T13:10:17.654Z,44.32
2023-06-24T13:12:45.067Z,44.33
2023-06-24T13:15:12.748Z,44.35
2023-06-24T13:17:40.151Z,44.42
2023-06-24T13:20:10.922Z,44.44
2023-06-24T13:22:38.353Z,44.45
2023-06-24T13:25:06.140Z,44.38
2023-06-24T13:27:33.725Z,44.46
2023-06-24T13:30:05.038Z,44.49
2023-06-24T13:32:37.297Z,44.58
2023-06-24T13:35:08.250Z,44.60
2023-06-24T13:37:35.473Z,44.54
2023-06-24T13:40:03.046Z,44.45
2023-06-24T13:42:33.198Z,44.48
2023-06-24T13:45:02.759Z,44.52
2023-06-24T13:47:30.173Z,44.38
2023-06-24T13:50:00.603Z,44.45
2023-06-24T13:52:27.997Z,44.37
2023-06-24T13:54:55.651Z,44.31
2023-06-24T13:57:25.554Z,44.44
2023-06-24T13:59:52.690Z,44.27
2023-06-24T14:02:20.211Z,44.54
2023-06-24T14:04:50.350Z,44.65
2023-06-24T14:07:17.537Z,44.74
2023-06-24T14:09:44.913Z,44.78
2023-06-24T14:12:12.500Z,44.82
2023-06-24T14:14:39.759Z,45.16
2023-06-24T14:17:11.022Z,44.78
2023-06-24T14:19:41.886Z,44.94
2023-06-24T14:22:09.491Z,44.95
2023-06-24T14:24:38.767Z,44.96
2023-06-24T14:27:07.789Z,45.03
2023-06-24T14:29:35.132Z,44.96
2023-06-24T14:32:04.488Z,45.18
2023-06-24T14:34:34.200Z,45.17
2023-06-24T14:37:06.152Z,45.20
2023-06-24T14:39:33.390Z,45.21
2023-06-24T14:42:00.650Z,45.20
2023-06-24T14:44:28.053Z,45.43
2023-06-24T14:46:57.708Z,45.40
2023-06-24T14:49:25.190Z,45.48
2023-06-24T14:51:53.240Z,45.48
2023-06-24T14:54:23.188Z,45.29
2023-06-24T14:56:50.581Z,45.56
2023-06-24T14:59:17.866Z,45.52
2023-06-24T15:01:45.065Z,45.51
2023-06-24T15:04:12.642Z,45.46
2023-06-24T15:06:42.778Z,45.40
2023-06-24T15:09:09.986Z,45.60
2023-06-24T15:11:37.540Z,45.47
2023-06-24T15:14:04.908Z,45.50
2023-06-24T15:16:32.495Z,47.13
2023-06-24T15:19:02.336Z,46.39
2023-06-24T15:21:37.121Z,46.03
2023-06-24T15:24:05.404Z,46.13
2023-06-24T15:26:33.700Z,46.20
2023-06-24T15:29:03.507Z,46.27
2023-06-24T15:31:30.952Z,46.36
2023-06-24T15:33:59.210Z,46.51
2023-06-24T15:36:27.792Z,46.49
2023-06-24T15:38:55.852Z,46.44
2023-06-24T15:41:23.971Z,46.37
2023-06-24T15:43:51.386Z,46.66
2023-06-24T15:46:21.130Z,46.53
2023-06-24T15:48:48.513Z,46.29
2023-06-24T15:51:16.129Z,46.23
2023-06-24T15:53:43.309Z,45.89
2023-06-24T15:56:10.528Z,45.68
2023-06-24T15:58:37.947Z,45.59
2023-06-24T16:01:05.404Z,45.82
2023-06-24T16:03:32.803Z,45.70
2023-06-24T16:06:02.713Z,46.37
2023-06-24T16:08:56.934Z,46.58
2023-06-24T16:11:53.956Z,46.59
2023-06-24T16:14:46.929Z,46.49
2023-06-24T16:17:21.577Z,47.03
2023-06-24T16:19:48.735Z,46.74
2023-06-24T16:22:16.156Z,46.58
2023-06-24T16:24:48.278Z,46.25
2023-06-24T16:27:18.979Z,46.37
2023-06-24T16:29:46.557Z,46.28
2023-06-24T16:32:13.896Z,46.42
2023-06-24T16:34:41.244Z,46.31
2023-06-24T16:37:10.815Z,46.40
2023-06-24T16:39:38.070Z,46.48
2023-06-24T16:42:05.705Z,46.45
2023-06-24T16:44:37.368Z,46.64
2023-06-24T16:47:07.192Z,47.00
2023-06-24T16:49:34.338Z,46.93
2023-06-24T16:52:02.776Z,47.04
2023-06-24T16:54:29.940Z,47.21
2023-06-24T16:56:57.242Z,47.13
2023-06-24T16:59:24.711Z,47.38
2023-06-24T17:01:54.190Z,47.44
2023-06-24T17:04:23.794Z,47.43
2023-06-24T17:06:51.067Z,47.38
2023-06-24T17:09:18.450Z,47.42
2023-06-24T17:11:48.117Z,47.46
2023-06-24T17:14:15.483Z,47.52
2023-06-24T17:16:42.998Z,47.63
2023-06-24T17:19:12.427Z,47.50
2023-06-24T17:21:44.867Z,47.67
2023-06-24T17:24:12.229Z,47.63
2023-06-24T17:26:39.454Z,47.71
2023-06-24T17:29:07.426Z,47.75
2023-06-24T17:31:34.575Z,47.76
2023-06-24T17:34:01.813Z,47.76
2023-06-24T17:36:29.310Z,47.83
2023-06-24T17:38:56.559Z,47.84
2023-06-24T17:41:24.119Z,47.98
2023-06-24T17:43:54.470Z,47.94
2023-06-24T17:46:24.118Z,47.97
2023-06-24T17:48:55.858Z,48.17
2023-06-24T17:51:23.142Z,48.32
2023-06-24T17:53:50.461Z,48.19
2023-06-24T17:56:17.626Z,48.12
2023-06-24T17:58:44.961Z,48.28
2023-06-24T18:01:16.433Z,48.21
2023-06-24T18:03:44.076Z,48.31
2023-06-24T18:06:14.025Z,48.19
2023-06-24T18:08:41.189Z,48.22
2023-06-24T18:11:08.571Z,48.17
2023-06-24T18:13:35.952Z,48.19
2023-06-24T18:16:05.518Z,48.14
2023-06-24T18:18:34.041Z,48.29
2023-06-24T18:21:01.285Z,48.29
2023-06-24T18:23:28.539Z,48.05
2023-06-24T18:26:00.525Z,48.38
2023-06-24T18:28:27.705Z,48.34
2023-06-24T18:30:55.059Z,48.42
2023-06-24T18:33:22.219Z,48.31
2023-06-24T18:35:49.440Z,48.32
2023-06-24T18:38:16.967Z,48.29
2023-06-24T18:40:44.225Z,48.32
2023-06-24T18:43:11.539Z,48.32
2023-06-24T18:45:38.797Z,48.26
2023-06-24T18:48:06.217Z,48.41
2023-06-24T18:50:35.854Z,48.22
2023-06-24T18:53:03.429Z,48.33
2023-06-24T18:55:30.765Z,48.24
2023-06-24T18:57:57.898Z,48.26
2023-06-24T19:00:45.244Z,48.16
2023-06-24T19:03:34.796Z,48.28
2023-06-24T19:06:07.766Z,48.12
2023-06-24T19:08:35.135Z,48.28
2023-06-24T19:11:04.533Z,48.01
2023-06-24T19:13:31.782Z,47.98
2023-06-24T19:15:59.226Z,47.88
2023-06-24T19:18:28.778Z,47.84
2023-06-24T19:20:56.169Z,47.78
2023-06-24T19:23:25.875Z,47.71
2023-06-24T19:25:53.308Z,47.68
2023-06-24T19:28:20.494Z,47.68
2023-06-24T19:30:48.043Z,47.49
2023-06-24T19:33:17.835Z,47.57
2023-06-24T19:35:45.023Z,47.25
2023-06-24T19:38:17.149Z,47.41
2023-06-24T19:40:44.364Z,47.45
2023-06-24T19:43:11.611Z,47.32
2023-06-24T19:45:38.998Z,47.18
2023-06-24T19:48:06.455Z,46.98
2023-06-24T19:50:34.214Z,46.85
2023-06-24T19:53:01.780Z,46.86
2023-06-24T19:55:29.019Z,46.72
2023-06-24T19:57:56.484Z,46.76
2023-06-24T20:00:25.853Z,46.43
2023-06-24T20:03:02.404Z,46.43
2023-06-24T20:05:30.824Z,46.55
2023-06-24T20:07:58.143Z,46.33
2023-06-24T20:10:25.313Z,46.18
2023-06-24T20:12:54.444Z,46.26
2023-06-24T20:15:21.869Z,46.21
2023-06-24T20:17:49.085Z,46.00
2023-06-24T20:20:19.054Z,45.97
2023-06-24T20:22:46.242Z,45.93
2023-06-24T20:25:13.483Z,45.61
2023-06-24T20:27:40.829Z,45.63
2023-06-24T20:30:10.984Z,45.45
2023-06-24T20:32:40.692Z,45.68
2023-06-24T20:35:08.411Z,45.32
2023-06-24T20:37:38.008Z,45.21
2023-06-24T20:40:08.244Z,44.93
2023-06-24T20:42:38.546Z,45.11
2023-06-24T20:45:06.479Z,45.02
2023-06-24T20:47:33.707Z,44.83
2023-06-24T20:50:01.273Z,44.95
2023-06-24T20:52:28.439Z,44.83
2023-06-24T20:54:58.323Z,44.64
2023-06-24T20:57:25.687Z,44.72
2023-06-24T20:59:52.839Z,44.53
2023-06-24T21:02:20.173Z,44.48
2023-06-24T21:04:47.565Z,44.40
2023-06-24T21:07:14.849Z,44.44
2023-06-24T21:09:42.152Z,44.36
2023-06-24T21:12:11.908Z,44.56
2023-06-24T21:14:39.190Z,44.48
2023-06-24T21:17:06.635Z,44.50
2023-06-24T21:19:35.503Z,44.58
2023-06-24T21:22:03.195Z,44.48
2023-06-24T21:24:32.701Z,44.22
2023-06-24T21:27:00.060Z,44.39
2023-06-24T21:29:29.674Z,44.57
2023-06-24T21:31:57.092Z,44.58
2023-06-24T21:34:24.260Z,44.40
2023-06-24T21:36:52.872Z,44.48
2023-06-24T21:39:20.216Z,44.50
2023-06-24T21:41:47.585Z,44.33
2023-06-24T21:44:15.303Z,44.42
2023-06-24T21:46:45.306Z,44.33
2023-06-24T21:49:13.059Z,44.35
2023-06-24T21:51:41.112Z,44.30
2023-06-24T21:54:10.752Z,44.46
2023-06-24T21:56:38.910Z,44.72
2023-06-24T21:59:06.340Z,44.53
2023-06-24T22:01:33.736Z,44.42
2023-06-24T22:04:00.973Z,44.52
2023-06-24T22:06:28.652Z,44.65
2023-06-24T22:08:55.848Z,44.46
2023-06-24T22:11:23.281Z,44.53
2023-06-24T22:13:53.087Z,44.50
2023-06-24T22:16:20.254Z,44.88
2023-06-24T22:18:47.728Z,44.86
2023-06-24T22:21:19.688Z,44.70
2023-06-24T22:23:47.127Z,44.74
2023-06-24T22:26:16.760Z,44.76
2023-06-24T22:28:47.113Z,44.74
2023-06-24T22:31:14.833Z,44.78
2023-06-24T22:33:42.163Z,44.80
2023-06-24T22:36:09.868Z,44.49
2023-06-24T22:38:41.744Z,44.80
2023-06-24T22:41:11.546Z,44.46
2023-06-24T22:43:41.315Z,44.78
2023-06-24T22:46:08.523Z,44.63
2023-06-24T22:48:35.980Z,44.66
2023-06-24T22:51:03.523Z,44.51
2023-06-24T22:53:30.721Z,44.63
2023-06-24T22:55:58.003Z,44.48
2023-06-24T22:58:25.346Z,44.81
2023-06-24T23:00:52.984Z,44.56
2023-06-24T23:03:20.668Z,44.42
2023-06-24T23:05:48.135Z,44.56
2023-06-24T23:08:15.705Z,44.70
2023-06-24T23:10:43.103Z,44.68
2023-06-24T23:13:13.479Z,44.80
2023-06-24T23:15:41.219Z,44.67
2023-06-24T23:18:13.617Z,44.72
2023-06-24T23:20:42.089Z,44.65
2023-06-24T23:23:13.279Z,44.71
2023-06-24T23:25:43.128Z,44.64
2023-06-24T23:28:20.979Z,44.77
2023-06-24T23:30:48.739Z,44.72
2023-06-24T23:33:20.101Z,44.85
2023-06-24T23:35:51.737Z,44.80
2023-06-24T23:38:20.442Z,44.80
2023-06-24T23:40:51.006Z,44.75
2023-06-24T23:43:20.485Z,44.74
2023-06-24T23:45:52.145Z,44.69
2023-06-24T23:48:21.753Z,44.78
2023-06-24T23:50:49.244Z,44.84
2023-06-24T23:53:18.918Z,44.66
2023-06-24T23:55:48.844Z,44.63
2023-06-24T23:58:16.050Z,44.88
